createdAt,value
2017-11-27T00:00:35.149Z,3.80
2017-11-27T00:03:02.646Z,3.80
2017-11-27T00:05:30.084Z,3.80
2017-11-27T00:07:57.510Z,3.80
2017-11-27T00:10:26.448Z,3.80
2017-11-27T00:12:53.881Z,3.80
2017-11-27T00:15:22.082Z,3.90
2017-11-27T00:17:49.502Z,3.90
2017-11-27T00:20:17.718Z,4.00
2017-11-27T00:22:45.218Z,4.00
2017-11-27T00:25:12.631Z,3.90
2017-11-27T00:27:40.056Z,4.00
2017-11-27T00:30:08.245Z,4.00
2017-11-27T00:32:36.435Z,4.00
2017-11-27T00:35:03.865Z,4.00
2017-11-27T00:37:31.312Z,4.00
2017-11-27T00:39:58.739Z,4.00
2017-11-27T00:42:26.207Z,4.00
2017-11-27T00:44:53.635Z,4.00
2017-11-27T00:47:21.050Z,4.10
2017-11-27T00:49:48.559Z,4.20
2017-11-27T00:52:16.050Z,4.20
2017-11-27T00:54:43.470Z,4.20
2017-11-27T00:57:11.679Z,4.20
2017-11-27T00:59:39.095Z,4.20
2017-11-27T01:02:07.292Z,4.40
2017-11-27T01:04:35.608Z,4.30
2017-11-27T01:07:03.070Z,4.30
2017-11-27T01:09:30.527Z,4.30
2017-11-27T01:11:57.960Z,4.20
2017-11-27T01:14:25.451Z,4.20
2017-11-27T01:16:52.916Z,4.30
2017-11-27T01:19:20.340Z,4.30
2017-11-27T01:21:48.538Z,4.40
2017-11-27T01:24:15.983Z,4.40
2017-11-27T01:26:43.480Z,4.50
2017-11-27T01:29:10.899Z,4.50
2017-11-27T01:31:39.108Z,4.60
2017-11-27T01:34:06.524Z,4.60
2017-11-27T01:36:34.755Z,4.60
2017-11-27T01:39:02.211Z,4.60
2017-11-27T01:41:29.667Z,4.60
2017-11-27T01:43:57.107Z,4.60
2017-11-27T01:46:24.605Z,4.60
2017-11-27T01:48:52.061Z,4.60
2017-11-27T01:51:19.480Z,4.60
2017-11-27T01:53:47.666Z,4.70
2017-11-27T01:56:15.159Z,4.70
2017-11-27T01:58:42.701Z,4.70
2017-11-27T02:01:10.117Z,4.70
2017-11-27T02:03:38.302Z,4.70
2017-11-27T02:06:05.738Z,4.70
2017-11-27T02:08:33.150Z,4.70
2017-11-27T02:11:00.579Z,4.70
2017-11-27T02:13:27.999Z,4.70
2017-11-27T02:15:55.434Z,4.60
2017-11-27T02:18:22.852Z,4.60
2017-11-27T02:20:50.394Z,4.60
2017-11-27T02:23:17.855Z,4.60
2017-11-27T02:25:45.351Z,4.60
2017-11-27T02:28:12.780Z,4.70
2017-11-27T02:30:40.227Z,4.60
2017-11-27T02:33:07.647Z,4.60
2017-11-27T02:35:35.857Z,4.60
2017-11-27T02:38:03.334Z,4.60
2017-11-27T02:40:30.785Z,4.60
2017-11-27T02:42:58.198Z,4.60
2017-11-27T02:45:25.620Z,4.60
2017-11-27T02:47:53.055Z,4.60
2017-11-27T02:50:20.466Z,4.70
2017-11-27T02:52:47.904Z,4.70
2017-11-27T02:55:15.332Z,4.60
2017-11-27T02:57:42.815Z,4.60
2017-11-27T03:00:10.238Z,4.60
2017-11-27T03:02:38.632Z,4.60
2017-11-27T03:05:06.118Z,4.60
2017-11-27T03:07:33.543Z,4.60
2017-11-27T03:10:01.731Z,4.60
2017-11-27T03:12:29.218Z,4.60
2017-11-27T03:14:56.647Z,4.60
2017-11-27T03:17:24.862Z,4.60
2017-11-27T03:19:52.292Z,4.60
2017-11-27T03:22:20.484Z,4.70
2017-11-27T03:24:47.959Z,4.70
2017-11-27T03:27:15.429Z,4.70
2017-11-27T03:29:42.843Z,4.70
2017-11-27T03:32:11.043Z,4.70
2017-11-27T03:34:38.459Z,4.70
2017-11-27T03:37:05.882Z,4.70
2017-11-27T03:39:33.335Z,4.80
2017-11-27T03:42:00.790Z,4.80
2017-11-27T03:44:28.272Z,4.80
2017-11-27T03:46:55.727Z,4.70
2017-11-27T03:49:23.152Z,4.70
2017-11-27T03:51:51.343Z,4.70
2017-11-27T03:54:18.823Z,4.70
2017-11-27T03:56:46.291Z,4.70
2017-11-27T03:59:13.702Z,4.70
2017-11-27T04:01:41.931Z,4.70
2017-11-27T04:04:09.387Z,4.70
2017-11-27T04:06:36.852Z,4.70
2017-11-27T04:09:04.308Z,4.60
2017-11-27T04:11:31.755Z,4.60
2017-11-27T04:13:59.167Z,4.60
2017-11-27T04:16:26.595Z,4.60
2017-11-27T04:18:54.011Z,4.50
2017-11-27T04:21:22.220Z,4.40
2017-11-27T04:23:49.644Z,4.40
2017-11-27T04:26:17.872Z,4.40
2017-11-27T04:28:45.954Z,4.30
2017-11-27T04:31:13.371Z,4.30
2017-11-27T04:33:41.596Z,4.30
2017-11-27T04:36:09.057Z,4.30
2017-11-27T04:38:36.478Z,4.30
2017-11-27T04:41:03.924Z,4.20
2017-11-27T04:43:31.340Z,4.30
2017-11-27T04:45:58.787Z,4.40
2017-11-27T04:48:26.208Z,4.50
2017-11-27T04:50:54.427Z,4.50
2017-11-27T04:53:21.839Z,4.50
2017-11-27T04:55:50.031Z,4.40
2017-11-27T04:58:18.245Z,4.40
2017-11-27T05:00:45.681Z,4.40
2017-11-27T05:03:13.860Z,4.40
2017-11-27T05:05:41.283Z,4.40
2017-11-27T05:08:08.702Z,4.40
2017-11-27T05:10:36.152Z,4.40
2017-11-27T05:13:03.567Z,4.30
2017-11-27T05:15:30.995Z,4.30
2017-11-27T05:17:58.419Z,4.30
2017-11-27T05:20:25.908Z,4.30
2017-11-27T05:22:53.343Z,4.30
2017-11-27T05:25:20.763Z,4.40
2017-11-27T05:27:48.199Z,4.40
2017-11-27T05:30:15.624Z,4.40
2017-11-27T05:32:43.112Z,4.40
2017-11-27T05:35:10.543Z,4.40
2017-11-27T05:37:37.971Z,4.40
2017-11-27T05:40:05.399Z,4.50
2017-11-27T05:42:32.824Z,4.50
2017-11-27T05:45:01.012Z,4.60
2017-11-27T05:47:28.482Z,4.60
2017-11-27T05:49:56.059Z,4.60
2017-11-27T05:52:23.474Z,4.60
2017-11-27T05:54:51.659Z,4.60
2017-11-27T05:57:19.850Z,4.60
2017-11-27T05:59:47.278Z,4.60
2017-11-27T06:02:14.799Z,4.70
2017-11-27T06:04:42.271Z,4.70
2017-11-27T06:07:09.724Z,4.80
2017-11-27T06:09:37.183Z,4.80
2017-11-27T06:12:04.616Z,4.80
2017-11-27T06:14:32.112Z,4.80
2017-11-27T06:16:59.583Z,4.90
2017-11-27T06:19:27.019Z,4.90
2017-11-27T06:21:54.487Z,4.90
2017-11-27T06:24:21.946Z,5.00
2017-11-27T06:26:49.416Z,4.90
2017-11-27T06:29:16.880Z,5.00
2017-11-27T06:31:44.335Z,5.00
2017-11-27T06:34:11.751Z,5.00
2017-11-27T06:36:39.977Z,5.00
2017-11-27T06:39:07.422Z,5.00
2017-11-27T06:41:34.899Z,5.10
2017-11-27T06:44:02.314Z,5.10
2017-11-27T06:46:30.513Z,5.10
2017-11-27T06:48:57.932Z,5.10
2017-11-27T06:51:25.369Z,5.20
2017-11-27T06:53:52.839Z,5.20
2017-11-27T06:56:20.251Z,5.20
2017-11-27T06:58:47.742Z,5.10
2017-11-27T07:01:15.162Z,5.20
2017-11-27T07:03:43.365Z,5.20
2017-11-27T07:06:10.834Z,5.20
2017-11-27T07:08:38.267Z,5.20
2017-11-27T07:11:06.457Z,5.20
2017-11-27T07:13:33.874Z,5.20
2017-11-27T07:16:02.225Z,5.20
2017-11-27T07:18:29.664Z,5.20
2017-11-27T07:20:57.143Z,5.30
2017-11-27T07:23:24.567Z,5.20
2017-11-27T07:25:52.767Z,5.30
2017-11-27T07:28:20.198Z,5.30
2017-11-27T07:30:48.387Z,5.30
2017-11-27T07:33:15.852Z,5.30
2017-11-27T07:35:43.283Z,5.30
2017-11-27T07:38:16.357Z,5.30
2017-11-27T07:40:43.780Z,5.30
2017-11-27T07:43:11.209Z,5.30
2017-11-27T07:45:39.418Z,5.30
2017-11-27T07:48:06.887Z,5.20
2017-11-27T07:50:34.325Z,5.20
2017-11-27T07:53:02.532Z,5.20
2017-11-27T07:55:29.947Z,5.20
2017-11-27T07:57:58.148Z,5.30
2017-11-27T08:00:25.630Z,5.30
2017-11-27T08:02:53.086Z,5.20
2017-11-27T08:05:20.512Z,5.20
2017-11-27T08:07:48.703Z,5.20
2017-11-27T08:10:16.123Z,5.20
2017-11-27T08:12:43.656Z,5.20
2017-11-27T08:15:11.075Z,5.20
2017-11-27T08:17:39.263Z,5.20
2017-11-27T08:20:06.710Z,5.20
2017-11-27T08:22:35.649Z,5.10
2017-11-27T08:25:03.075Z,5.20
2017-11-27T08:27:31.288Z,5.20
2017-11-27T08:29:58.748Z,5.20
2017-11-27T08:32:26.162Z,5.30
2017-11-27T08:34:54.387Z,5.30
2017-11-27T08:37:21.807Z,5.30
2017-11-27T08:39:50.095Z,5.40
2017-11-27T08:42:18.311Z,5.40
2017-11-27T08:44:45.771Z,5.40
2017-11-27T08:47:13.195Z,5.30
2017-11-27T08:49:41.407Z,5.40
2017-11-27T08:52:09.602Z,5.40
2017-11-27T08:54:37.043Z,5.50
2017-11-27T08:57:04.470Z,5.50
2017-11-27T08:59:32.783Z,5.50
2017-11-27T09:02:00.247Z,5.50
2017-11-27T09:04:27.710Z,5.50
2017-11-27T09:06:55.166Z,5.50
2017-11-27T09:09:22.584Z,5.50
2017-11-27T09:11:50.791Z,5.60
2017-11-27T09:14:18.267Z,5.60
2017-11-27T09:16:45.720Z,5.60
2017-11-27T09:19:13.144Z,5.60
2017-11-27T09:21:40.551Z,5.70
2017-11-27T09:24:07.984Z,5.70
2017-11-27T09:26:36.173Z,5.70
2017-11-27T09:29:03.651Z,5.70
2017-11-27T09:31:31.116Z,5.70
2017-11-27T09:33:58.540Z,5.70
2017-11-27T09:36:26.723Z,5.80
2017-11-27T09:38:54.919Z,5.90
2017-11-27T09:41:22.339Z,5.80
2017-11-27T09:43:49.795Z,5.90
2017-11-27T09:46:17.222Z,5.90
2017-11-27T09:48:44.639Z,5.80
2017-11-27T09:51:12.844Z,5.90
2017-11-27T09:53:40.260Z,5.80
2017-11-27T09:56:07.775Z,5.90
2017-11-27T09:58:35.331Z,5.90
2017-11-27T10:01:02.795Z,5.90
2017-11-27T10:03:30.215Z,5.90
2017-11-27T10:05:58.419Z,5.90
2017-11-27T10:08:25.839Z,5.90
2017-11-27T10:10:53.259Z,5.90
2017-11-27T10:13:21.733Z,6.00
2017-11-27T10:15:49.199Z,6.00
2017-11-27T10:18:16.669Z,6.10
2017-11-27T10:20:44.140Z,6.10
2017-11-27T10:23:11.563Z,6.10
2017-11-27T10:25:38.983Z,6.20
2017-11-27T10:28:07.921Z,6.20
2017-11-27T10:30:35.392Z,6.20
2017-11-27T10:33:02.862Z,6.30
2017-11-27T10:35:30.280Z,6.30
2017-11-27T10:37:58.467Z,6.30
2017-11-27T10:40:26.687Z,6.40
2017-11-27T10:42:54.125Z,6.40
2017-11-27T10:45:22.318Z,6.50
2017-11-27T10:47:49.782Z,6.50
2017-11-27T10:50:17.208Z,6.50
2017-11-27T10:52:45.399Z,6.50
2017-11-27T10:55:12.837Z,6.50
2017-11-27T10:57:41.019Z,6.60
2017-11-27T11:00:09.330Z,6.60
2017-11-27T11:02:36.776Z,6.60
2017-11-27T11:05:04.269Z,6.60
2017-11-27T11:07:31.724Z,6.60
2017-11-27T11:09:59.171Z,6.70
2017-11-27T11:12:26.652Z,6.70
2017-11-27T11:14:54.216Z,6.70
2017-11-27T11:17:21.664Z,6.70
2017-11-27T11:19:49.063Z,6.70
2017-11-27T11:22:16.586Z,6.70
2017-11-27T11:24:43.996Z,6.70
2017-11-27T11:27:11.431Z,6.70
2017-11-27T11:29:38.860Z,6.70
2017-11-27T11:32:06.336Z,6.60
2017-11-27T11:34:33.731Z,6.70
2017-11-27T11:37:01.171Z,6.60
2017-11-27T11:39:28.611Z,6.70
2017-11-27T11:41:56.060Z,6.70
2017-11-27T11:44:23.484Z,6.80
2017-11-27T11:46:51.011Z,6.80
2017-11-27T11:49:18.454Z,6.80
2017-11-27T11:51:45.926Z,6.80
2017-11-27T11:54:13.357Z,6.80
2017-11-27T11:56:41.539Z,6.70
2017-11-27T11:59:09.032Z,6.70
2017-11-27T12:01:36.447Z,6.80
2017-11-27T12:04:04.694Z,6.80
2017-11-27T12:06:32.103Z,6.80
2017-11-27T12:08:59.567Z,6.80
2017-11-27T12:11:27.203Z,6.80
2017-11-27T12:13:54.749Z,6.90
2017-11-27T12:16:22.187Z,6.80
2017-11-27T12:18:49.608Z,6.90
2017-11-27T12:21:17.821Z,6.90
2017-11-27T12:23:45.240Z,6.90
2017-11-27T12:26:13.435Z,6.90
2017-11-27T12:28:40.858Z,6.90
2017-11-27T12:31:08.283Z,6.90
2017-11-27T12:33:35.736Z,6.90
2017-11-27T12:36:03.202Z,6.90
2017-11-27T12:38:30.624Z,6.90
2017-11-27T12:40:58.806Z,6.90
2017-11-27T12:43:27.017Z,6.90
2017-11-27T12:45:54.444Z,6.90
2017-11-27T12:48:22.644Z,6.90
2017-11-27T12:50:50.059Z,6.90
2017-11-27T12:53:17.579Z,6.90
2017-11-27T12:55:45.030Z,7.00
2017-11-27T12:58:12.465Z,7.00
2017-11-27T13:00:40.684Z,7.00
2017-11-27T13:03:08.111Z,7.10
2017-11-27T13:05:35.615Z,7.10
2017-11-27T13:08:03.047Z,7.10
2017-11-27T13:10:30.527Z,7.10
2017-11-27T13:12:58.081Z,7.10
2017-11-27T13:15:25.550Z,7.10
2017-11-27T13:17:52.971Z,7.20
2017-11-27T13:20:21.167Z,7.10
2017-11-27T13:22:48.680Z,7.10
2017-11-27T13:25:16.095Z,7.10
2017-11-27T13:27:43.571Z,7.10
2017-11-27T13:30:11.031Z,7.20
2017-11-27T13:32:38.498Z,7.20
2017-11-27T13:35:05.931Z,7.20
2017-11-27T13:37:33.415Z,7.20
2017-11-27T13:40:00.885Z,7.20
2017-11-27T13:42:28.311Z,7.20
2017-11-27T13:44:55.811Z,7.20
2017-11-27T13:47:23.392Z,7.20
2017-11-27T13:49:50.935Z,7.20
2017-11-27T13:52:18.330Z,7.30
2017-11-27T13:54:45.843Z,7.30
2017-11-27T13:57:13.251Z,7.20
2017-11-27T13:59:40.673Z,7.30
2017-11-27T14:02:08.156Z,7.20
2017-11-27T14:04:35.604Z,7.30
2017-11-27T14:07:03.076Z,7.30
2017-11-27T14:09:30.476Z,7.30
2017-11-27T14:11:58.680Z,7.30
2017-11-27T14:14:26.147Z,7.30
2017-11-27T14:16:53.567Z,7.30
2017-11-27T14:19:21.791Z,7.40
2017-11-27T14:21:49.228Z,7.40
2017-11-27T14:24:16.698Z,7.40
2017-11-27T14:26:44.128Z,7.40
2017-11-27T14:29:11.543Z,7.40
2017-11-27T14:31:38.966Z,7.50
2017-11-27T14:34:07.156Z,7.50
2017-11-27T14:36:34.639Z,7.50
2017-11-27T14:39:02.103Z,7.50
2017-11-27T14:44:02.524Z,7.50
2017-11-27T14:46:29.952Z,7.50
2017-11-27T14:48:57.380Z,7.50
2017-11-27T14:51:24.856Z,7.50
2017-11-27T14:53:52.287Z,7.50
2017-11-27T14:56:19.715Z,7.50
2017-11-27T14:58:47.947Z,7.50
2017-11-27T15:01:15.375Z,7.50
2017-11-27T15:03:42.857Z,7.50
2017-11-27T15:06:10.320Z,7.40
2017-11-27T15:08:37.800Z,7.40
2017-11-27T15:11:05.243Z,7.40
2017-11-27T15:13:32.687Z,7.40
2017-11-27T15:16:00.252Z,7.50
2017-11-27T15:18:27.727Z,7.40
2017-11-27T15:20:55.161Z,7.50
2017-11-27T15:23:23.368Z,7.50
2017-11-27T15:25:50.829Z,7.50
2017-11-27T15:28:18.343Z,7.50
2017-11-27T15:30:46.582Z,7.50
2017-11-27T15:33:14.028Z,7.50
2017-11-27T15:35:41.498Z,7.50
2017-11-27T15:38:08.956Z,7.50
2017-11-27T15:40:36.374Z,7.50
2017-11-27T15:43:04.560Z,7.50
2017-11-27T15:45:32.865Z,7.50
2017-11-27T15:48:00.265Z,7.40
2017-11-27T15:50:27.695Z,7.50
2017-11-27T15:52:55.112Z,7.50
2017-11-27T15:55:23.322Z,7.50
2017-11-27T15:57:50.734Z,7.40
2017-11-27T16:00:18.157Z,7.40
2017-11-27T16:02:45.607Z,7.40
2017-11-27T16:05:13.034Z,7.50
2017-11-27T16:07:41.275Z,7.50
2017-11-27T16:10:08.711Z,7.50
2017-11-27T16:12:36.147Z,7.50
2017-11-27T16:15:03.653Z,7.50
2017-11-27T16:17:31.092Z,7.50
2017-11-27T16:19:58.507Z,7.50
2017-11-27T16:22:26.740Z,7.60
2017-11-27T16:24:54.200Z,7.50
2017-11-27T16:27:21.615Z,7.60
2017-11-27T16:29:49.880Z,7.50
2017-11-27T16:32:17.321Z,7.50
2017-11-27T16:34:44.764Z,7.60
2017-11-27T16:37:12.175Z,7.60
2017-11-27T16:39:40.381Z,7.60
2017-11-27T16:42:07.798Z,7.60
2017-11-27T16:44:35.222Z,7.60
2017-11-27T16:47:02.643Z,7.60
2017-11-27T16:49:30.844Z,7.60
2017-11-27T16:51:58.320Z,7.60
2017-11-27T16:54:25.800Z,7.60
2017-11-27T16:56:53.233Z,7.60
2017-11-27T16:59:20.691Z,7.60
2017-11-27T17:01:49.689Z,7.60
2017-11-27T17:04:17.115Z,7.60
2017-11-27T17:06:45.311Z,7.60
2017-11-27T17:09:12.799Z,7.60
2017-11-27T17:11:40.290Z,7.60
2017-11-27T17:14:07.694Z,7.60
2017-11-27T17:16:35.147Z,7.60
2017-11-27T17:19:03.331Z,7.60
2017-11-27T17:21:30.763Z,7.60
2017-11-27T17:23:58.215Z,7.60
2017-11-27T17:26:25.751Z,7.60
2017-11-27T17:28:53.194Z,7.70
2017-11-27T17:31:21.074Z,7.70
2017-11-27T17:33:48.504Z,7.70
2017-11-27T17:36:16.688Z,7.70
2017-11-27T17:38:44.120Z,7.70
2017-11-27T17:41:11.626Z,7.70
2017-11-27T17:43:39.119Z,7.60
2017-11-27T17:46:06.541Z,7.70
2017-11-27T17:48:34.009Z,7.60
2017-11-27T17:51:02.189Z,7.70
2017-11-27T17:53:29.600Z,7.70
2017-11-27T17:55:57.041Z,7.70
2017-11-27T17:58:24.463Z,7.60
2017-11-27T18:00:51.888Z,7.70
2017-11-27T18:03:20.149Z,7.70
2017-11-27T18:05:47.539Z,7.70
2017-11-27T18:08:15.766Z,7.70
2017-11-27T18:10:43.231Z,7.70
2017-11-27T18:13:10.650Z,7.70
2017-11-27T18:15:38.067Z,7.80
2017-11-27T18:18:05.513Z,7.80
2017-11-27T18:20:32.967Z,7.80
2017-11-27T18:23:00.440Z,7.80
2017-11-27T18:25:27.856Z,7.80
2017-11-27T18:27:56.076Z,7.80
2017-11-27T18:30:23.523Z,7.80
2017-11-27T18:32:50.991Z,7.80
2017-11-27T18:35:18.424Z,7.80
2017-11-27T18:37:46.002Z,7.90
2017-11-27T18:40:13.419Z,7.80
2017-11-27T18:42:41.645Z,7.90
2017-11-27T18:45:09.119Z,7.90
2017-11-27T18:47:36.562Z,7.80
2017-11-27T18:50:04.023Z,7.80
2017-11-27T18:52:31.499Z,7.80
2017-11-27T18:54:58.935Z,7.80
2017-11-27T18:57:26.406Z,7.90
2017-11-27T18:59:53.825Z,7.90
2017-11-27T19:02:21.433Z,7.80
2017-11-27T19:04:48.939Z,7.80
2017-11-27T19:07:16.379Z,7.80
2017-11-27T19:09:43.841Z,7.80
2017-11-27T19:12:11.299Z,7.80
2017-11-27T19:14:38.842Z,7.90
2017-11-27T19:17:06.254Z,7.90
2017-11-27T19:19:33.766Z,7.90
2017-11-27T19:22:01.203Z,8.00
2017-11-27T19:24:29.917Z,8.00
2017-11-27T19:26:57.354Z,8.00
2017-11-27T19:29:25.535Z,7.90
2017-11-27T19:31:53.834Z,7.90
2017-11-27T19:34:21.309Z,7.90
2017-11-27T19:36:48.775Z,7.90
2017-11-27T19:39:16.187Z,7.90
2017-11-27T19:41:44.511Z,7.90
2017-11-27T19:44:11.980Z,7.90
2017-11-27T19:46:39.436Z,7.90
2017-11-27T19:49:06.859Z,8.00
2017-11-27T19:51:35.056Z,8.00
2017-11-27T19:54:02.491Z,8.00
2017-11-27T19:56:30.715Z,7.90
2017-11-27T19:58:58.171Z,7.90
2017-11-27T20:01:25.626Z,8.00
2017-11-27T20:03:53.063Z,8.00
2017-11-27T20:06:20.545Z,7.90
2017-11-27T20:08:48.024Z,7.90
2017-11-27T20:11:15.452Z,8.00
2017-11-27T20:13:42.941Z,7.90
2017-11-27T20:16:10.368Z,7.90
2017-11-27T20:18:38.579Z,7.90
2017-11-27T20:21:06.035Z,7.90
2017-11-27T20:23:33.463Z,7.90
2017-11-27T20:26:01.660Z,8.00
2017-11-27T20:28:29.092Z,8.00
2017-11-27T20:30:57.318Z,7.90
2017-11-27T20:33:24.739Z,7.90
2017-11-27T20:35:52.976Z,7.80
2017-11-27T20:38:20.415Z,7.80
2017-11-27T20:40:47.847Z,7.80
2017-11-27T20:43:16.035Z,7.70
2017-11-27T20:45:43.452Z,7.70
2017-11-27T20:48:10.903Z,7.70
2017-11-27T20:50:38.336Z,7.70
2017-11-27T20:53:05.760Z,7.60
2017-11-27T20:55:34.096Z,7.50
2017-11-27T20:58:01.556Z,7.50
2017-11-27T21:00:29.005Z,7.50
2017-11-27T21:02:56.431Z,7.50
2017-11-27T21:05:24.635Z,7.40
2017-11-27T21:07:52.049Z,7.40
2017-11-27T21:10:20.231Z,7.40
2017-11-27T21:12:48.460Z,7.40
2017-11-27T21:15:15.892Z,7.40
2017-11-27T21:17:43.335Z,7.40
2017-11-27T21:20:10.747Z,7.40
2017-11-27T21:22:38.163Z,7.30
2017-11-27T21:25:06.364Z,7.30
2017-11-27T21:27:33.855Z,7.30
2017-11-27T21:30:01.268Z,7.30
2017-11-27T21:32:29.571Z,7.10
2017-11-27T21:34:57.031Z,7.10
2017-11-27T21:37:24.508Z,7.10
2017-11-27T21:39:51.985Z,7.10
2017-11-27T21:42:19.520Z,7.00
2017-11-27T21:44:47.640Z,7.00
2017-11-27T21:47:15.172Z,7.00
2017-11-27T21:49:42.591Z,6.90
2017-11-27T21:52:10.788Z,6.90
2017-11-27T21:54:38.227Z,6.90
2017-11-27T21:57:05.640Z,7.00
2017-11-27T21:59:33.061Z,6.90
2017-11-27T22:02:00.555Z,6.80
2017-11-27T22:04:28.284Z,6.80
2017-11-27T22:06:56.507Z,6.80
2017-11-27T22:09:23.959Z,6.80
2017-11-27T22:11:51.375Z,6.80
2017-11-27T22:14:19.696Z,6.80
2017-11-27T22:16:47.191Z,6.80
2017-11-27T22:19:14.718Z,6.80
2017-11-27T22:21:42.136Z,6.80
2017-11-27T22:24:10.359Z,6.80
2017-11-27T22:26:37.830Z,6.80
2017-11-27T22:29:05.295Z,6.80
2017-11-27T22:31:32.713Z,6.80
2017-11-27T22:34:00.917Z,6.80
2017-11-27T22:36:28.335Z,6.80
2017-11-27T22:38:56.567Z,6.80
2017-11-27T22:41:24.028Z,6.70
2017-11-27T22:43:51.552Z,6.70
2017-11-27T22:46:19.728Z,6.70
2017-11-27T22:48:47.912Z,6.70
2017-11-27T22:51:16.110Z,6.60
2017-11-27T22:53:43.538Z,6.60
2017-11-27T22:56:11.734Z,6.60
2017-11-27T22:58:39.936Z,6.60
2017-11-27T23:01:07.363Z,6.60
2017-11-27T23:03:35.557Z,6.60
2017-11-27T23:06:02.983Z,6.60
2017-11-27T23:08:30.503Z,6.60
2017-11-27T23:10:57.934Z,6.60
2017-11-27T23:13:26.142Z,6.60
2017-11-27T23:15:53.576Z,6.60
2017-11-27T23:18:20.992Z,6.60
2017-11-27T23:20:48.432Z,6.60
2017-11-27T23:23:15.888Z,6.50
2017-11-27T23:25:43.304Z,6.50
2017-11-27T23:28:11.518Z,6.40
2017-11-27T23:30:38.935Z,6.40
2017-11-27T23:33:07.163Z,6.40
2017-11-27T23:35:34.614Z,6.40
2017-11-27T23:38:02.072Z,6.40
2017-11-27T23:40:29.542Z,6.30
2017-11-27T23:42:57.004Z,6.20
2017-11-27T23:45:24.486Z,6.20
2017-11-27T23:47:51.930Z,6.20
2017-11-27T23:50:19.391Z,6.10
2017-11-27T23:52:46.850Z,6.20
2017-11-27T23:55:14.263Z,6.10
2017-11-27T23:57:42.443Z,6.20
